createdAt,value
2022-12-11T00:07:22.132Z,99883.81
2022-12-11T00:17:25.899Z,99895.22
2022-12-11T00:27:31.001Z,99908.69
2022-12-11T00:37:34.723Z,99900.53
2022-12-11T00:47:39.957Z,99896.31
2022-12-11T00:57:43.580Z,99890.72
2022-12-11T01:07:48.703Z,99899.28
2022-12-11T01:17:52.905Z,99894.72
2022-12-11T01:27:58.038Z,99895.56
2022-12-11T01:38:02.821Z,99897.16
2022-12-11T01:48:12.512Z,99892.31
2022-12-11T01:58:17.701Z,99908.53
2022-12-11T02:08:23.048Z,99901.81
2022-12-11T02:18:32.487Z,99891.84
2022-12-11T02:28:44.796Z,99888.75
2022-12-11T02:38:52.795Z,99895.19
2022-12-11T02:48:58.925Z,99919.59
2022-12-11T02:59:10.445Z,99897.75
2022-12-11T03:09:15.771Z,99892.16
2022-12-11T03:19:25.572Z,99898.91
2022-12-11T03:29:36.542Z,99890.66
2022-12-11T03:39:45.654Z,99892.66
2022-12-11T03:49:52.863Z,99884.44
2022-12-11T03:59:56.805Z,99887.69
2022-12-11T04:10:02.237Z,99893.50
2022-12-11T04:20:25.549Z,99875.78
2022-12-11T04:30:34.135Z,99880.09
2022-12-11T04:40:38.495Z,99882.53
2022-12-11T04:50:43.576Z,99885.63
2022-12-11T05:00:47.624Z,99887.25
2022-12-11T05:10:58.688Z,99878.44
2022-12-11T05:21:05.795Z,99865.19
2022-12-11T05:31:15.009Z,99855.56
2022-12-11T05:41:21.443Z,99880.66
2022-12-11T05:51:28.053Z,99866.97
2022-12-11T06:01:34.876Z,99866.81
2022-12-11T06:11:39.979Z,99848.69
2022-12-11T06:21:43.928Z,99846.31
2022-12-11T06:31:48.946Z,99849.97
2022-12-11T06:41:52.729Z,99846.59
2022-12-11T06:51:58.497Z,99834.69
2022-12-11T07:02:02.332Z,99835.34
2022-12-11T07:12:08.784Z,99850.94
2022-12-11T07:22:12.530Z,99853.38
2022-12-11T07:32:17.695Z,99862.19
2022-12-11T07:42:21.624Z,99860.50
2022-12-11T07:52:26.620Z,99866.31
2022-12-11T08:02:34.020Z,99868.31
2022-12-11T08:12:42.117Z,99875.47
2022-12-11T08:22:45.823Z,99876.44
2022-12-11T08:32:50.914Z,99866.97
2022-12-11T08:42:54.711Z,99868.66
2022-12-11T08:52:59.671Z,99859.19
2022-12-11T09:03:05.331Z,99869.28
2022-12-11T09:13:13.558Z,99870.50
2022-12-11T09:23:17.262Z,99865.22
2022-12-11T09:33:22.215Z,99866.22
2022-12-11T09:43:37.624Z,99846.97
2022-12-11T09:53:42.769Z,99857.78
2022-12-11T10:04:17.089Z,99857.31
2022-12-11T10:14:37.274Z,99841.41
2022-12-11T10:35:22.095Z,99827.13
2022-12-11T10:45:25.906Z,99831.13
2022-12-11T10:55:40.063Z,99823.41
2022-12-11T11:05:49.200Z,99810.00
2022-12-11T11:16:02.356Z,99784.31
2022-12-11T11:26:09.917Z,99778.75
2022-12-11T11:36:23.222Z,99773.19
2022-12-11T11:46:31.634Z,99763.31
2022-12-11T11:56:38.696Z,99769.72
2022-12-11T12:07:01.486Z,99740.00
2022-12-11T12:17:22.420Z,99745.22
2022-12-11T12:27:52.842Z,99743.78
2022-12-11T12:38:07.338Z,99737.06
2022-12-11T12:48:11.576Z,99735.13
2022-12-11T12:58:29.632Z,99730.31
2022-12-11T13:08:43.520Z,99718.69
2022-12-11T13:18:49.441Z,99727.81
2022-12-11T13:28:54.011Z,99743.38
2022-12-11T13:39:04.023Z,99739.63
2022-12-11T13:49:18.230Z,99741.63
2022-12-11T13:59:28.541Z,99737.34
2022-12-11T14:09:32.947Z,99746.84
2022-12-11T14:19:38.259Z,99740.16
2022-12-11T14:29:42.227Z,99744.75
2022-12-11T14:39:55.075Z,99750.94
2022-12-11T14:50:03.931Z,99748.91
2022-12-11T15:00:22.945Z,99758.25
2022-12-11T15:10:37.738Z,99757.94
2022-12-11T15:20:43.103Z,99765.16
2022-12-11T15:30:58.540Z,99776.31
2022-12-11T15:41:05.043Z,99785.41
2022-12-11T15:51:08.831Z,99789.38
2022-12-11T16:01:14.127Z,99782.66
2022-12-11T16:11:18.036Z,99797.59
2022-12-11T16:21:23.234Z,99797.16
2022-12-11T16:31:26.930Z,99793.78
2022-12-11T16:41:32.062Z,99784.81
2022-12-11T16:51:35.775Z,99789.56
2022-12-11T17:01:41.057Z,99785.91
2022-12-11T17:11:44.787Z,99784.25
2022-12-11T17:21:51.728Z,99773.66
2022-12-11T17:31:55.645Z,99778.75
2022-12-11T17:42:01.201Z,99779.13
2022-12-11T17:52:05.317Z,99770.88
2022-12-11T18:02:11.465Z,99765.69
2022-12-11T18:12:15.153Z,99772.50
2022-12-11T18:22:20.566Z,99777.34
2022-12-11T18:32:24.391Z,99765.16
2022-12-11T18:42:33.754Z,99761.59
2022-12-11T18:52:37.668Z,99771.00
2022-12-11T19:02:42.883Z,99765.72
2022-12-11T19:12:46.563Z,99762.50
2022-12-11T19:22:51.606Z,99761.28
2022-12-11T19:32:57.962Z,99765.72
2022-12-11T19:43:03.785Z,99772.19
2022-12-11T19:53:08.069Z,99775.00
2022-12-11T20:03:13.835Z,99774.34
2022-12-11T20:13:17.705Z,99776.44
2022-12-11T20:23:22.851Z,99769.84
2022-12-11T20:33:26.637Z,99785.94
2022-12-11T20:43:32.051Z,99781.84
2022-12-11T20:53:36.823Z,99761.53
2022-12-11T21:03:47.313Z,99773.19
2022-12-11T21:13:52.019Z,99767.78
2022-12-11T21:23:57.230Z,99759.69
2022-12-11T21:34:01.154Z,99775.13
2022-12-11T21:54:30.665Z,99787.84
2022-12-11T22:04:36.983Z,99782.25
2022-12-11T22:14:40.631Z,99767.94
2022-12-11T22:24:45.759Z,99772.94
2022-12-11T22:34:49.462Z,99792.50
2022-12-11T22:44:54.530Z,99789.69
2022-12-11T22:54:58.369Z,99799.84
2022-12-11T23:05:04.047Z,99793.44
2022-12-11T23:15:09.679Z,99806.88
2022-12-11T23:25:15.767Z,99799.75
2022-12-11T23:35:19.812Z,99807.66
2022-12-11T23:45:25.118Z,99811.41
2022-12-11T23:55:29.690Z,99826.84
